Time;durP1;ratioP1;P1;durP2;ratioP2;P2;SDS_P1;SDS_P2;PMS_P1;PMS_P2;Temp;Humidity;BMP_temperature;BMP_pressure;BME280_temperature;BME280_humidity;BME280_pressure;Samples;Min_cycle;Max_cycle;Signal;HPM_P1;HPM_P2
2023/07/15 00:02:04;;;;;;;;;66.00;51.50;;;;;22.70;54.32;100913.52;110301;1265;21924;-74
2023/07/15 00:04:30;;;;;;;;;47.50;44.00;;;;;22.50;54.84;100917.46;110290;1250;19749;-74
2023/07/15 00:06:56;;;;;;;;;53.00;43.00;;;;;22.45;55.10;100919.14;110261;1251;19699;-75
2023/07/15 00:09:26;;;;;;;;;43.00;39.00;;;;;22.36;55.17;100919.28;110259;1250;20389;-74
2023/07/15 00:11:52;;;;;;;;;39.00;35.00;;;;;22.36;55.16;100917.78;110283;1265;20583;-74
2023/07/15 00:14:18;;;;;;;;;36.00;30.00;;;;;22.41;54.86;100911.20;110245;1250;21813;-73
2023/07/15 00:16:44;;;;;;;;;40.00;33.00;;;;;22.46;54.53;100907.52;110155;1250;20075;-74
2023/07/15 00:19:10;;;;;;;;;34.67;33.33;;;;;22.47;53.94;100906.63;110161;1250;19620;-73
2023/07/15 00:21:36;;;;;;;;;31.50;28.00;;;;;22.49;53.63;100902.65;110114;1265;18861;-73
2023/07/15 00:24:02;;;;;;;;;34.00;30.00;;;;;22.46;53.66;100905.84;110186;1250;20196;-73
2023/07/15 00:26:29;;;;;;;;;36.00;32.50;;;;;22.50;53.29;100901.54;110173;1250;21794;-73
2023/07/15 00:28:55;;;;;;;;;36.00;32.00;;;;;22.52;53.22;100899.34;110236;1265;20311;-72
2023/07/15 00:31:23;;;;;;;;;34.50;28.50;;;;;22.47;53.03;100894.55;110310;1250;19944;-72
2023/07/15 00:33:49;;;;;;;;;30.00;29.00;;;;;22.30;52.86;100896.84;110275;1250;19556;-74
2023/07/15 00:36:15;;;;;;;;;32.00;29.00;;;;;22.18;53.03;100895.20;110260;1259;20047;-74
2023/07/15 00:38:42;;;;;;;;;29.00;26.00;;;;;22.16;52.92;100892.25;110218;1250;20054;-73
2023/07/15 00:41:08;;;;;;;;;31.00;26.33;;;;;22.19;52.77;100890.55;110262;1265;19451;-73
2023/07/15 00:43:34;;;;;;;;;31.00;27.00;;;;;22.27;52.60;100889.56;110297;1249;20205;-75
2023/07/15 00:46:00;;;;;;;;;27.00;26.00;;;;;22.18;52.08;100887.89;110258;1265;18622;-74
2023/07/15 00:48:26;;;;;;;;;28.33;25.67;;;;;22.09;51.90;100880.47;110250;1264;18355;-74
2023/07/15 00:50:52;;;;;;;;;28.00;25.50;;;;;22.00;52.15;100878.61;110218;1265;20069;-74
2023/07/15 00:53:18;;;;;;;;;29.00;27.00;;;;;22.06;52.05;100882.89;110261;1266;18594;-74
2023/07/15 00:55:44;;;;;;;;;33.00;29.00;;;;;21.83;52.50;100881.88;110247;1249;18141;-74
2023/07/15 00:58:10;;;;;;;;;30.67;29.00;;;;;21.66;52.96;100880.84;110291;1257;21811;-74
2023/07/15 01:00:37;;;;;;;;;28.00;28.00;;;;;21.66;52.96;100880.86;110257;1257;20429;-73
2023/07/15 01:03:03;;;;;;;;;31.00;29.00;;;;;21.38;53.60;100879.32;110229;1250;21811;-74
2023/07/15 01:05:30;;;;;;;;;27.00;25.67;;;;;21.20;54.41;100878.78;110254;1259;18687;-73
2023/07/15 01:07:56;;;;;;;;;30.50;27.00;;;;;21.14;54.87;100881.54;110262;1250;20016;-73
2023/07/15 01:10:22;;;;;;;;;26.00;26.00;;;;;21.16;54.92;100881.59;110229;1250;19439;-73
2023/07/15 01:12:48;;;;;;;;;25.00;25.00;;;;;21.19;54.46;100883.97;110263;1264;18651;-73
2023/07/15 01:15:14;;;;;;;;;28.50;26.50;;;;;21.14;54.38;100882.22;110226;1265;19019;-73
2023/07/15 01:17:40;;;;;;;;;25.50;24.00;;;;;21.19;54.09;100885.55;110171;1265;19422;-73
2023/07/15 01:20:06;;;;;;;;;31.00;28.00;;;;;21.11;53.97;100894.09;110137;1250;21185;-73
2023/07/15 01:22:32;;;;;;;;;27.67;25.67;;;;;21.07;53.73;100895.59;110256;1250;20107;-73
2023/07/15 01:24:58;;;;;;;;;24.00;23.00;;;;;21.11;53.83;100892.21;110205;1265;18708;-73
2023/07/15 01:27:26;;;;;;;;;22.67;22.67;;;;;20.94;53.80;100900.00;110214;1265;19954;-73
2023/07/15 01:29:52;;;;;;;;;31.50;27.50;;;;;21.07;53.70;100900.38;110267;1250;21914;-73
2023/07/15 01:32:18;;;;;;;;;30.00;28.00;;;;;21.04;53.84;100897.35;110260;1250;19642;-74
2023/07/15 01:34:45;;;;;;;;;28.00;26.00;;;;;20.84;54.04;100894.09;110270;1250;20150;-75
2023/07/15 01:37:11;;;;;;;;;24.00;23.50;;;;;20.72;54.14;100890.16;110221;1266;21953;-75
2023/07/15 01:39:38;;;;;;;;;23.00;22.00;;;;;20.88;53.84;100895.79;110281;1265;19608;-74
2023/07/15 01:42:04;;;;;;;;;27.00;25.00;;;;;21.07;53.43;100894.11;110248;1250;20121;-74
2023/07/15 01:44:30;;;;;;;;;27.00;25.00;;;;;21.12;53.17;100890.88;110206;1265;18577;-72
2023/07/15 01:46:56;;;;;;;;;27.00;25.00;;;;;20.91;53.42;100888.48;110185;1265;20834;-72
2023/07/15 01:49:22;;;;;;;;;30.00;29.00;;;;;20.79;53.58;100889.30;110161;1265;18597;-73
2023/07/15 01:51:48;;;;;;;;;26.67;24.00;;;;;20.82;53.74;100889.02;110171;1266;20297;-72
2023/07/15 01:54:15;;;;;;;;;26.00;24.50;;;;;20.73;53.63;100886.36;110231;1257;20801;-73
2023/07/15 01:56:41;;;;;;;;;31.50;26.50;;;;;20.69;53.97;100886.15;110184;1265;22065;-73
2023/07/15 01:59:07;;;;;;;;;30.00;29.50;;;;;20.73;54.00;100883.66;110198;1265;22081;-73
2023/07/15 02:01:33;;;;;;;;;26.00;23.00;;;;;20.74;54.09;100883.52;110234;1250;19602;-73
2023/07/15 02:03:59;;;;;;;;;25.00;25.00;;;;;20.64;54.21;100881.64;110281;1250;20195;-72
2023/07/15 02:06:26;;;;;;;;;25.50;25.00;;;;;20.45;54.43;100879.34;110096;1252;21479;-73
2023/07/15 02:08:52;;;;;;;;;25.50;24.00;;;;;20.43;54.91;100876.16;110267;1265;19207;-74
2023/07/15 02:11:18;;;;;;;;;23.00;23.00;;;;;20.54;54.93;100875.63;110270;1250;19930;-73
2023/07/15 02:13:44;;;;;;;;;28.00;24.33;;;;;20.56;54.74;100869.80;110184;1265;18631;-73
2023/07/15 02:16:10;;;;;;;;;25.50;22.00;;;;;20.57;54.69;100869.73;110261;1265;18175;-73
2023/07/15 02:18:36;;;;;;;;;29.00;24.50;;;;;20.49;55.02;100863.61;110263;1265;19201;-73
2023/07/15 02:21:02;;;;;;;;;30.50;26.00;;;;;20.58;54.70;100859.56;110271;1250;18569;-74
2023/07/15 02:23:28;;;;;;;;;23.00;22.00;;;;;20.51;55.14;100858.75;110260;1250;19507;-73
2023/07/15 02:25:54;;;;;;;;;27.00;25.50;;;;;20.64;54.85;100856.03;110251;1265;18715;-73
2023/07/15 02:28:22;;;;;;;;;23.00;23.00;;;;;20.58;54.66;100853.24;110270;1250;20009;-74
2023/07/15 02:30:49;;;;;;;;;26.50;26.00;;;;;20.55;54.68;100853.73;110236;1250;19668;-74
2023/07/15 02:33:15;;;;;;;;;25.00;25.00;;;;;20.42;54.89;100854.27;110185;1265;18583;-74
2023/07/15 02:35:41;;;;;;;;;27.00;23.00;;;;;20.36;55.14;100859.69;110269;1250;20946;-72
2023/07/15 02:38:07;;;;;;;;;29.00;24.67;;;;;20.42;54.92;100860.99;110235;1249;21551;-74
2023/07/15 02:40:33;;;;;;;;;23.00;23.00;;;;;20.48;54.97;100868.35;110274;1265;19032;-74
2023/07/15 02:42:59;;;;;;;;;24.00;23.00;;;;;20.47;54.77;100868.20;110256;1265;19191;-75
2023/07/15 02:45:26;;;;;;;;;26.00;23.00;;;;;20.48;54.62;100873.59;110261;1265;19495;-74
2023/07/15 02:47:52;;;;;;;;;23.00;22.00;;;;;20.40;54.70;100874.27;110275;1265;19871;-75
2023/07/15 02:50:18;;;;;;;;;27.00;24.00;;;;;20.40;54.65;100880.95;110262;1250;20089;-74
2023/07/15 02:52:45;;;;;;;;;28.00;26.00;;;;;20.36;54.60;100881.80;110258;1250;19632;-74
2023/07/15 02:55:11;;;;;;;;;23.50;22.00;;;;;20.43;54.47;100881.87;110218;1250;21939;-74
2023/07/15 02:57:37;;;;;;;;;23.00;23.00;;;;;20.42;54.55;100879.51;110233;1265;18796;-74
2023/07/15 03:00:14;;;;;;;;;22.00;19.00;;;;;20.26;54.69;100876.77;110275;1265;19604;-74
2023/07/15 03:02:40;;;;;;;;;27.00;24.00;;;;;20.41;54.42;100876.48;110115;1265;19929;-74
2023/07/15 03:05:06;;;;;;;;;24.50;22.50;;;;;20.40;54.65;100877.89;110212;1250;21277;-74
2023/07/15 03:07:32;;;;;;;;;23.00;22.00;;;;;20.26;54.67;100875.23;110255;1250;19765;-73
2023/07/15 03:09:58;;;;;;;;;22.00;20.00;;;;;20.39;54.79;100877.98;110258;1258;19977;-75
2023/07/15 03:12:24;;;;;;;;;25.00;25.00;;;;;20.40;54.62;100872.86;110243;1262;20162;-73
2023/07/15 03:14:50;;;;;;;;;24.00;23.00;;;;;20.40;54.64;100872.62;110278;1265;19391;-74
2023/07/15 03:17:17;;;;;;;;;23.00;21.67;;;;;20.34;54.77;100872.75;110263;1257;18694;-74
2023/07/15 03:19:43;;;;;;;;;23.00;21.00;;;;;20.34;54.60;100869.02;110274;1265;18598;-74
2023/07/15 03:22:10;;;;;;;;;25.00;24.50;;;;;20.38;54.42;100866.89;110249;1265;22000;-74
2023/07/15 03:24:36;;;;;;;;;30.50;25.50;;;;;20.32;54.59;100862.52;110251;1265;18570;-74
2023/07/15 03:27:02;;;;;;;;;22.50;22.00;;;;;20.21;54.87;100861.49;110227;1265;18765;-75
2023/07/15 03:29:28;;;;;;;;;23.67;22.33;;;;;20.25;54.87;100854.34;110151;1257;18141;-73
2023/07/15 03:31:54;;;;;;;;;25.00;22.00;;;;;20.09;55.44;100849.00;110227;1266;20108;-74
2023/07/15 03:34:20;;;;;;;;;22.00;22.00;;;;;20.17;55.72;100841.41;110273;1250;20008;-74
2023/07/15 03:36:46;;;;;;;;;23.00;22.00;;;;;20.39;54.99;100842.84;110144;1250;21506;-74
2023/07/15 03:39:12;;;;;;;;;21.00;19.00;;;;;20.19;55.37;100839.66;110229;1250;20028;-74
2023/07/15 03:41:38;;;;;;;;;19.00;18.00;;;;;19.98;55.87;100834.68;110246;1250;20045;-72
2023/07/15 03:44:04;;;;;;;;;22.00;19.00;;;;;20.18;55.64;100832.64;110150;1250;19604;-72
2023/07/15 03:46:30;;;;;;;;;24.00;21.00;;;;;20.37;54.81;100830.30;110166;1257;18682;-72
2023/07/15 03:48:57;;;;;;;;;19.00;18.50;;;;;20.04;55.04;100827.34;110232;1251;20057;-72
2023/07/15 03:51:23;;;;;;;;;21.50;21.00;;;;;19.92;55.44;100828.22;110256;1250;19726;-74
2023/07/15 03:53:49;;;;;;;;;21.00;18.00;;;;;20.06;55.32;100827.85;110260;1250;19951;-75
2023/07/15 03:56:15;;;;;;;;;20.00;18.50;;;;;20.15;54.94;100829.10;110224;1250;20080;-73
2023/07/15 03:58:41;;;;;;;;;18.00;15.00;;;;;20.20;54.46;100828.79;110220;1257;20888;-74
2023/07/15 04:01:07;;;;;;;;;20.00;19.00;;;;;20.23;54.44;100829.38;110134;1265;18615;-73
2023/07/15 04:03:33;;;;;;;;;16.00;16.00;;;;;20.38;54.06;100832.94;110115;1249;20245;-73
2023/07/15 04:05:59;;;;;;;;;16.00;16.00;;;;;20.27;53.97;100833.83;110176;1251;19483;-73
2023/07/15 04:08:25;;;;;;;;;18.50;16.00;;;;;20.32;54.02;100830.67;110167;1250;19991;-73
2023/07/15 04:10:51;;;;;;;;;21.00;19.00;;;;;20.45;53.63;100827.80;110229;1251;20779;-73
2023/07/15 04:13:17;;;;;;;;;18.00;18.00;;;;;20.29;54.02;100830.46;110235;1249;19661;-73
2023/07/15 04:15:43;;;;;;;;;21.00;18.00;;;;;20.26;54.11;100826.58;110261;1255;20196;-74
2023/07/15 04:18:09;;;;;;;;;18.00;16.00;;;;;20.28;54.14;100826.48;110287;1265;19077;-75
2023/07/15 04:20:36;;;;;;;;;18.00;18.00;;;;;20.02;54.61;100825.41;110266;1250;19598;-75
2023/07/15 04:23:02;;;;;;;;;18.33;18.33;;;;;20.04;54.59;100826.34;110284;1251;19855;-75
2023/07/15 04:25:28;;;;;;;;;21.00;19.00;;;;;20.18;54.36;100827.40;110254;1265;18631;-75
2023/07/15 04:27:54;;;;;;;;;20.00;18.00;;;;;20.33;54.17;100821.20;110261;1265;18227;-75
2023/07/15 04:30:20;;;;;;;;;19.00;16.00;;;;;20.33;54.00;100823.30;110284;1265;18905;-75
2023/07/15 04:32:48;;;;;;;;;19.00;19.00;;;;;20.26;54.02;100828.05;110270;1265;22019;-76
2023/07/15 04:35:14;;;;;;;;;18.00;18.00;;;;;20.20;53.76;100825.84;110248;1250;21838;-74
2023/07/15 04:37:40;;;;;;;;;16.00;15.00;;;;;20.08;54.19;100824.35;110165;1265;18938;-74
2023/07/15 04:40:07;;;;;;;;;19.00;19.00;;;;;20.25;54.01;100823.48;110238;1249;20491;-74
2023/07/15 04:42:33;;;;;;;;;23.00;19.00;;;;;20.37;53.46;100821.67;110238;1249;20780;-75
2023/07/15 04:44:59;;;;;;;;;18.50;18.00;;;;;20.23;53.84;100828.27;110254;1265;18614;-74
2023/07/15 04:47:25;;;;;;;;;19.00;16.00;;;;;20.26;53.89;100827.80;110245;1250;20098;-75
2023/07/15 04:49:51;;;;;;;;;18.00;18.00;;;;;20.45;53.62;100827.05;110252;1264;20932;-75
2023/07/15 04:52:17;;;;;;;;;22.00;21.00;;;;;20.39;53.86;100825.92;110261;1250;20029;-75
2023/07/15 04:54:43;;;;;;;;;21.00;18.00;;;;;20.33;53.96;100825.56;110258;1250;20025;-74
2023/07/15 04:57:10;;;;;;;;;16.00;15.00;;;;;20.49;53.79;100830.25;110272;1250;19718;-75
2023/07/15 04:59:36;;;;;;;;;21.00;19.00;;;;;20.58;53.36;100826.52;110258;1249;20051;-74
2023/07/15 05:02:02;;;;;;;;;19.00;18.33;;;;;20.54;53.26;100833.48;110204;1265;20039;-74
2023/07/15 05:04:28;;;;;;;;;18.00;17.00;;;;;20.37;53.50;100825.59;110221;1265;18131;-74
2023/07/15 05:06:54;;;;;;;;;16.50;16.50;;;;;20.39;53.62;100830.64;110253;1250;18542;-74
2023/07/15 05:09:20;;;;;;;;;19.00;17.00;;;;;20.27;53.83;100829.98;110210;1265;19955;-74
2023/07/15 05:11:46;;;;;;;;;17.00;17.00;;;;;20.33;53.82;100825.48;110242;1250;20782;-74
2023/07/15 05:14:12;;;;;;;;;14.00;14.00;;;;;20.35;53.91;100822.98;110246;1249;18547;-75
2023/07/15 05:16:38;;;;;;;;;16.00;16.00;;;;;20.40;54.06;100827.39;110222;1250;20058;-74
2023/07/15 05:19:04;;;;;;;;;20.00;17.00;;;;;20.37;53.84;100830.63;110253;1250;19562;-74
2023/07/15 05:21:30;;;;;;;;;19.00;17.00;;;;;20.59;53.68;100832.98;110282;1250;20104;-75
2023/07/15 05:23:56;;;;;;;;;20.00;19.00;;;;;20.66;53.52;100836.18;110287;1250;21573;-74
2023/07/15 05:26:22;;;;;;;;;16.00;16.00;;;;;20.64;53.36;100837.66;110279;1250;19492;-75
2023/07/15 05:28:48;;;;;;;;;19.00;17.00;;;;;20.35;54.02;100840.59;110255;1250;20043;-75
2023/07/15 05:31:14;;;;;;;;;18.00;16.50;;;;;20.22;54.40;100837.27;110271;1250;20086;-73
2023/07/15 05:33:44;;;;;;;;;17.00;17.00;;;;;20.15;54.60;100834.83;110232;1265;18932;-74
2023/07/15 05:36:10;;;;;;;;;18.00;16.00;;;;;20.21;54.63;100832.52;110232;1258;21100;-74
2023/07/15 05:38:36;;;;;;;;;21.00;19.00;;;;;20.06;55.08;100836.86;110223;1250;21148;-72
2023/07/15 05:41:02;;;;;;;;;21.00;19.00;;;;;20.11;55.09;100833.08;110266;1265;18128;-74
2023/07/15 05:43:28;;;;;;;;;24.00;19.00;;;;;20.33;54.88;100831.31;110249;1250;20103;-75
2023/07/15 05:45:54;;;;;;;;;19.00;19.00;;;;;20.51;54.72;100827.52;110270;1250;20138;-74
2023/07/15 05:48:20;;;;;;;;;16.00;16.00;;;;;20.61;54.58;100824.61;110290;1265;18166;-74
2023/07/15 05:50:46;;;;;;;;;17.00;16.00;;;;;20.56;54.56;100829.27;110265;1265;20387;-75
2023/07/15 05:53:12;;;;;;;;;16.00;16.00;;;;;20.54;54.70;100833.83;110277;1265;19163;-75
2023/07/15 05:55:39;;;;;;;;;19.50;19.00;;;;;20.52;54.78;100835.02;110247;1250;19535;-74
2023/07/15 05:58:09;;;;;;;;;18.50;15.50;;;;;20.61;54.78;100832.55;110184;1265;18573;-74
2023/07/15 06:00:35;;;;;;;;;19.50;16.50;;;;;20.75;54.54;100831.47;110172;1265;19996;-73
2023/07/15 06:03:01;;;;;;;;;20.00;19.00;;;;;20.81;54.40;100830.96;110154;1260;18089;-73
2023/07/15 06:05:27;;;;;;;;;21.50;19.50;;;;;20.71;54.40;100829.23;110264;1265;20154;-74
2023/07/15 06:07:53;;;;;;;;;19.00;17.00;;;;;20.79;54.74;100826.54;110260;1249;20043;-76
2023/07/15 06:10:19;;;;;;;;;19.50;19.50;;;;;20.87;54.48;100829.63;110257;1250;19615;-74
2023/07/15 06:12:45;;;;;;;;;19.50;18.00;;;;;20.83;54.61;100830.02;110282;1265;19885;-75
2023/07/15 06:15:12;;;;;;;;;20.00;17.00;;;;;20.85;54.73;100831.42;110279;1265;18609;-75
2023/07/15 06:17:38;;;;;;;;;16.00;15.00;;;;;21.18;54.18;100833.11;110184;1265;18132;-75
2023/07/15 06:20:04;;;;;;;;;19.00;16.00;;;;;21.43;53.70;100832.60;110258;1250;20192;-75
2023/07/15 06:22:30;;;;;;;;;16.00;16.00;;;;;21.37;53.94;100835.97;110260;1250;18658;-74
2023/07/15 06:24:56;;;;;;;;;17.00;17.00;;;;;21.48;53.91;100829.27;110104;1257;106840;-73
2023/07/15 06:27:23;;;;;;;;;18.00;18.00;;;;;21.42;53.82;100823.02;110249;1250;21958;-72
2023/07/15 06:29:49;;;;;;;;;15.50;15.00;;;;;21.49;53.71;100820.80;110265;1265;22012;-73
2023/07/15 06:32:15;;;;;;;;;15.00;15.00;;;;;21.68;53.36;100817.20;110259;1265;19368;-73
2023/07/15 06:34:41;;;;;;;;;16.50;15.00;;;;;21.76;53.25;100817.52;110273;1265;20980;-73
2023/07/15 06:37:07;;;;;;;;;15.50;14.50;;;;;21.71;53.41;100819.07;110208;1265;19228;-73
2023/07/15 06:39:33;;;;;;;;;21.00;19.00;;;;;21.72;53.52;100810.22;110161;1250;20782;-73
2023/07/15 06:41:59;;;;;;;;;17.00;15.00;;;;;21.81;53.25;100805.94;110163;1265;19337;-73
2023/07/15 06:44:25;;;;;;;;;15.00;15.00;;;;;21.92;53.19;100809.15;110234;1265;18716;-74
2023/07/15 06:46:51;;;;;;;;;14.00;14.00;;;;;22.01;53.22;100802.77;110255;1265;18122;-74
2023/07/15 06:49:17;;;;;;;;;17.00;17.00;;;;;22.10;52.90;100802.06;110236;1265;18484;-73
2023/07/15 06:51:43;;;;;;;;;17.00;15.00;;;;;22.08;53.35;100799.19;110241;1250;19991;-71
2023/07/15 06:54:09;;;;;;;;;15.00;15.00;;;;;22.23;53.38;100800.21;110256;1250;19665;-72
2023/07/15 06:56:36;;;;;;;;;17.00;16.00;;;;;22.46;52.94;100801.05;110243;1250;20149;-74
2023/07/15 06:59:02;;;;;;;;;14.00;14.00;;;;;22.52;52.91;100798.42;110265;1265;20099;-70
2023/07/15 07:01:28;;;;;;;;;15.00;13.00;;;;;22.57;52.90;100794.58;110271;1250;19869;-71
2023/07/15 07:03:54;;;;;;;;;16.00;15.00;;;;;22.58;52.82;100789.70;110276;1250;19935;-72
2023/07/15 07:06:20;;;;;;;;;12.00;12.00;;;;;22.68;52.73;100787.62;110251;1265;19974;-72
2023/07/15 07:08:47;;;;;;;;;12.00;12.00;;;;;22.75;52.78;100787.39;110266;1265;18357;-72
2023/07/15 07:11:13;;;;;;;;;11.00;11.00;;;;;22.79;52.88;100790.89;110253;1257;22157;-72
2023/07/15 07:13:39;;;;;;;;;12.00;9.67;;;;;22.79;52.87;100785.17;110294;1250;20024;-72
2023/07/15 07:16:05;;;;;;;;;11.00;11.00;;;;;22.79;52.81;100785.31;110284;1264;18108;-71
2023/07/15 07:18:31;;;;;;;;;9.00;9.00;;;;;22.79;52.83;100789.47;110210;1250;19941;-71
2023/07/15 07:20:57;;;;;;;;;9.00;8.00;;;;;22.82;52.85;100779.08;110243;1250;21595;-72
2023/07/15 07:23:23;;;;;;;;;8.00;8.00;;;;;22.84;52.69;100782.73;110249;1265;19061;-72
2023/07/15 07:25:50;;;;;;;;;8.00;8.00;;;;;22.84;52.77;100776.51;110191;1250;19972;-72
2023/07/15 07:28:16;;;;;;;;;8.00;6.00;;;;;22.85;52.62;100772.70;110258;1265;18329;-72
2023/07/15 07:30:42;;;;;;;;;9.00;8.00;;;;;22.87;52.55;100772.80;110124;1250;19655;-72
2023/07/15 07:33:08;;;;;;;;;5.00;5.00;;;;;22.89;52.48;100770.55;110170;1265;21305;-72
2023/07/15 07:35:34;;;;;;;;;6.00;6.00;;;;;22.91;52.60;100773.23;110160;1265;19243;-70
2023/07/15 07:38:01;;;;;;;;;5.00;5.00;;;;;22.91;52.42;100769.61;110164;1250;19003;-72
2023/07/15 07:40:27;;;;;;;;;5.50;5.50;;;;;22.93;52.53;100769.16;110194;1265;18877;-71
2023/07/15 07:42:53;;;;;;;;;5.50;5.00;;;;;22.94;52.47;100765.80;110222;1265;19510;-71
2023/07/15 07:45:19;;;;;;;;;5.00;5.00;;;;;22.96;52.23;100765.63;110224;1265;19208;-71
2023/07/15 07:47:45;;;;;;;;;6.00;6.00;;;;;22.96;52.42;100759.70;110187;1250;20341;-71
2023/07/15 07:50:11;;;;;;;;;5.00;5.00;;;;;22.98;52.38;100754.22;110230;1250;19788;-71
2023/07/15 07:52:37;;;;;;;;;6.00;6.00;;;;;22.99;52.28;100750.27;110242;1265;18727;-72
2023/07/15 07:55:03;;;;;;;;;5.50;5.00;;;;;23.01;52.17;100741.63;110245;1265;19871;-72
2023/07/15 07:57:29;;;;;;;;;6.00;5.00;;;;;23.03;52.04;100739.86;110240;1251;19681;-72
2023/07/15 07:59:55;;;;;;;;;4.00;4.00;;;;;23.07;51.93;100740.11;110230;1265;18062;-71
2023/07/15 08:02:21;;;;;;;;;5.00;5.00;;;;;23.06;51.94;100738.00;110263;1266;18730;-71
2023/07/15 08:04:48;;;;;;;;;4.50;4.00;;;;;23.07;51.82;100740.83;110269;1265;18206;-71
2023/07/15 08:07:14;;;;;;;;;4.00;4.00;;;;;23.08;51.90;100735.24;110249;1250;20635;-71
2023/07/15 08:09:40;;;;;;;;;4.00;4.00;;;;;23.09;52.03;100729.80;110255;1250;20126;-72
2023/07/15 08:12:08;;;;;;;;;4.00;4.00;;;;;23.11;51.92;100729.02;110252;1265;21469;-72
2023/07/15 08:14:34;;;;;;;;;4.00;4.00;;;;;23.11;51.86;100733.31;110251;1250;19313;-71
2023/07/15 08:17:00;;;;;;;;;4.00;4.00;;;;;23.13;51.79;100734.90;110273;1265;18562;-72
2023/07/15 08:19:26;;;;;;;;;2.00;2.00;;;;;23.14;51.66;100733.30;110262;1250;19841;-72
2023/07/15 08:21:52;;;;;;;;;3.00;3.00;;;;;23.16;51.70;100728.86;110236;1265;19168;-71
2023/07/15 08:24:19;;;;;;;;;4.00;4.00;;;;;23.17;51.59;100730.19;110278;1250;20140;-73
2023/07/15 08:26:45;;;;;;;;;2.00;2.00;;;;;23.18;51.44;100729.37;110170;1265;19587;-72
2023/07/15 08:29:11;;;;;;;;;2.00;2.00;;;;;23.19;51.62;100725.46;110188;1250;19579;-71
2023/07/15 08:31:37;;;;;;;;;2.00;2.00;;;;;23.21;51.62;100727.20;110244;1265;18790;-71
2023/07/15 08:34:03;;;;;;;;;2.00;2.00;;;;;23.22;51.62;100724.27;110269;1250;19594;-72
2023/07/15 08:36:29;;;;;;;;;2.00;2.00;;;;;23.23;51.39;100721.16;110257;1265;18136;-72
2023/07/15 08:38:55;;;;;;;;;2.00;2.00;;;;;23.24;51.48;100724.73;110240;1261;18547;-72
2023/07/15 08:41:21;;;;;;;;;2.00;2.00;;;;;23.23;51.65;100722.54;110238;1250;19565;-73
2023/07/15 08:43:47;;;;;;;;;2.00;2.00;;;;;23.23;51.57;100716.98;110237;1265;17909;-72
2023/07/15 08:46:13;;;;;;;;;2.00;2.00;;;;;23.22;51.56;100720.15;110228;1265;18552;-72
2023/07/15 08:48:39;;;;;;;;;2.00;2.00;;;;;23.24;51.59;100720.88;110205;1250;18186;-72
2023/07/15 08:51:05;;;;;;;;;3.00;3.00;;;;;23.25;51.55;100719.12;110211;1264;17893;-72
2023/07/15 08:53:31;;;;;;;;;2.00;2.00;;;;;23.25;51.50;100717.95;110180;1250;20206;-72
2023/07/15 08:55:58;;;;;;;;;3.00;3.00;;;;;23.26;51.47;100718.25;110196;1250;19998;-72
2023/07/15 08:58:24;;;;;;;;;2.00;2.00;;;;;23.27;51.45;100709.38;110156;1265;19167;-72
2023/07/15 09:00:50;;;;;;;;;2.00;2.00;;;;;23.28;51.42;100715.40;110149;1251;18536;-72
2023/07/15 09:03:16;;;;;;;;;2.00;2.00;;;;;23.28;51.37;100710.05;110159;1265;20213;-72
2023/07/15 09:05:43;;;;;;;;;2.00;2.00;;;;;23.28;51.49;100711.36;110250;1250;19354;-72
2023/07/15 09:08:09;;;;;;;;;2.00;2.00;;;;;23.29;51.38;100707.23;110266;1265;20029;-72
2023/07/15 09:10:36;;;;;;;;;2.00;2.00;;;;;23.30;51.35;100712.39;110259;1265;18317;-73
2023/07/15 09:13:02;;;;;;;;;2.00;2.00;;;;;23.30;51.44;100710.41;110230;1265;18981;-72
2023/07/15 09:15:28;;;;;;;;;2.00;2.00;;;;;23.31;51.24;100702.05;110258;1264;20097;-72
2023/07/15 09:17:54;;;;;;;;;2.00;2.00;;;;;23.31;51.24;100698.40;110273;1250;19133;-72
2023/07/15 09:20:20;;;;;;;;;2.00;2.00;;;;;23.32;51.46;100699.59;110257;1250;19308;-72
2023/07/15 09:22:47;;;;;;;;;2.00;2.00;;;;;23.32;51.22;100695.93;110260;1250;20133;-72
2023/07/15 09:25:13;;;;;;;;;2.00;2.00;;;;;23.34;51.35;100695.61;110264;1265;18256;-72
2023/07/15 09:27:39;;;;;;;;;4.00;4.00;;;;;23.39;51.45;100695.88;110249;1265;17937;-70
2023/07/15 09:30:05;;;;;;;;;4.00;4.00;;;;;23.40;51.81;100687.34;110246;1250;21440;-70
2023/07/15 09:32:31;;;;;;;;;4.00;4.00;;;;;23.40;52.09;100684.47;110258;1265;18574;-71
2023/07/15 09:34:57;;;;;;;;;2.00;2.00;;;;;23.42;52.47;100686.39;110241;1265;21935;-72
2023/07/15 09:37:23;;;;;;;;;2.00;2.00;;;;;23.46;52.78;100682.30;110239;1250;19757;-71
2023/07/15 09:39:49;;;;;;;;;3.00;3.00;;;;;23.46;52.88;100680.96;110249;1264;21817;-71
2023/07/15 09:42:15;;;;;;;;;4.00;2.00;;;;;23.47;53.18;100669.94;110287;1265;17763;-70
2023/07/15 09:44:43;;;;;;;;;4.00;4.00;;;;;23.50;53.40;100670.98;110257;1265;20430;-70
2023/07/15 09:47:09;;;;;;;;;6.00;5.00;;;;;23.51;53.56;100671.02;110234;1265;22071;-70
2023/07/15 09:49:35;;;;;;;;;49.50;41.50;;;;;23.64;53.23;100670.67;110274;1265;18021;-70
2023/07/15 09:52:01;;;;;;;;;52.00;42.00;;;;;23.72;53.19;100672.59;110219;1265;21528;-72
2023/07/15 09:54:27;;;;;;;;;52.00;43.00;;;;;23.66;53.32;100663.02;110243;1265;20061;-71
2023/07/15 09:56:53;;;;;;;;;55.00;42.00;;;;;23.62;53.45;100664.35;110228;1265;18731;-71
2023/07/15 09:59:19;;;;;;;;;57.00;41.00;;;;;23.62;53.32;100659.73;110248;1258;18666;-71
2023/07/15 10:01:45;;;;;;;;;42.50;35.50;;;;;23.64;53.28;100650.63;110261;1250;19989;-71
2023/07/15 10:04:11;;;;;;;;;43.00;36.00;;;;;23.63;53.31;100652.13;110130;1265;19008;-70
2023/07/15 10:06:37;;;;;;;;;35.00;26.00;;;;;23.64;53.49;100652.05;110112;1250;19934;-71
2023/07/15 10:09:04;;;;;;;;;36.00;26.50;;;;;23.66;53.41;100648.85;110248;1250;18628;-71
2023/07/15 10:11:31;;;;;;;;;30.50;25.50;;;;;23.68;53.62;100651.34;110225;1265;18131;-72
2023/07/15 10:13:57;;;;;;;;;31.00;24.00;;;;;23.69;53.58;100648.48;110198;1251;21529;-71
2023/07/15 10:16:24;;;;;;;;;27.50;21.00;;;;;23.68;53.67;100651.13;110241;1265;21612;-71
2023/07/15 10:18:50;;;;;;;;;27.00;25.00;;;;;23.67;53.64;100648.93;110122;1265;18141;-71
2023/07/15 10:21:16;;;;;;;;;25.00;16.00;;;;;23.67;53.75;100647.25;110159;1265;21842;-71
2023/07/15 10:23:42;;;;;;;;;19.50;16.00;;;;;23.66;53.83;100648.67;110206;1250;20067;-70
2023/07/15 10:26:08;;;;;;;;;23.00;17.67;;;;;23.67;53.75;100643.34;110142;1257;22220;-70
2023/07/15 10:28:34;;;;;;;;;17.00;16.00;;;;;23.66;53.72;100639.74;110175;1265;18570;-70
2023/07/15 10:31:00;;;;;;;;;14.67;13.33;;;;;23.67;53.70;100638.88;110174;1257;20007;-70
2023/07/15 10:33:26;;;;;;;;;16.00;16.00;;;;;23.67;53.67;100636.13;110201;1265;19429;-70
2023/07/15 10:35:52;;;;;;;;;9.50;9.00;;;;;23.69;53.77;100636.24;110268;1265;20114;-70
2023/07/15 10:38:18;;;;;;;;;12.50;10.00;;;;;23.70;53.94;100631.44;110256;1265;20263;-70
2023/07/15 10:40:44;;;;;;;;;16.00;14.00;;;;;23.69;54.06;100628.95;110271;1265;18220;-72
2023/07/15 10:43:10;;;;;;;;;13.00;9.50;;;;;23.71;53.98;100632.50;110247;1265;19896;-72
2023/07/15 10:45:36;;;;;;;;;9.00;9.00;;;;;23.78;54.15;100629.90;110256;1250;19992;-73
2023/07/15 10:48:03;;;;;;;;;13.00;12.00;;;;;23.88;54.08;100626.01;110256;1265;19245;-73
2023/07/15 10:50:29;;;;;;;;;12.00;10.00;;;;;23.92;54.01;100627.64;110156;1250;21027;-73
2023/07/15 10:52:55;;;;;;;;;12.50;11.00;;;;;23.93;54.05;100623.09;110131;1265;18768;-73
2023/07/15 10:55:21;;;;;;;;;9.00;9.00;;;;;23.95;54.02;100613.96;110214;1265;18757;-72
2023/07/15 10:57:47;;;;;;;;;11.00;9.50;;;;;23.95;54.17;100609.71;110262;1250;19376;-73
2023/07/15 11:00:13;;;;;;;;;9.00;8.00;;;;;23.93;54.22;100610.71;110233;1257;19491;-73